Time;durP1;ratioP1;P1;durP2;ratioP2;P2;SDS_P1;SDS_P2;PMS_P1;PMS_P2;Temp;Humidity;BMP_temperature;BMP_pressure;BME280_temperature;BME280_humidity;BME280_pressure;Samples;Min_cycle;Max_cycle;Signal;HPM_P1;HPM_P2
2020/12/12 00:01:59;;;;;;;57.93;39.70;;;;;;;;;;5073147;28;20458;-62
2020/12/12 00:04:25;;;;;;;63.57;43.73;;;;;;;;;;5073961;28;20451;-63
2020/12/12 00:06:52;;;;;;;64.40;42.67;;;;;;;;;;5072760;28;20467;-65
2020/12/12 00:09:19;;;;;;;67.73;38.67;;;;;;;;;;5073660;28;20466;-63
2020/12/12 00:11:46;;;;;;;58.90;39.10;;;;;;;;;;5072591;28;20473;-63
2020/12/12 00:14:13;;;;;;;62.40;39.10;;;;;;;;;;5069169;28;20455;-62
2020/12/12 00:16:39;;;;;;;57.77;37.00;;;;;;;;;;5065177;28;20498;-63
2020/12/12 00:19:06;;;;;;;63.63;39.83;;;;;;;;;;5071391;28;20466;-63
2020/12/12 00:21:33;;;;;;;60.37;37.10;;;;;;;;;;5071410;28;20462;-61
2020/12/12 00:23:59;;;;;;;63.60;40.23;;;;;;;;;;5071449;28;20443;-65
2020/12/12 00:26:26;;;;;;;57.97;37.87;;;;;;;;;;5070662;28;20463;-64
2020/12/12 00:28:53;;;;;;;58.00;38.47;;;;;;;;;;5072034;28;20475;-63
2020/12/12 00:31:20;;;;;;;59.30;37.37;;;;;;;;;;5069340;28;20463;-63
2020/12/12 00:33:47;;;;;;;57.40;38.50;;;;;;;;;;5070725;28;20474;-63
2020/12/12 00:36:14;;;;;;;61.50;38.53;;;;;;;;;;5071481;28;20490;-63
2020/12/12 00:38:40;;;;;;;60.10;37.37;;;;;;;;;;5070780;28;20466;-63
2020/12/12 00:41:07;;;;;;;60.73;38.80;;;;;;;;;;5071537;28;20447;-62
2020/12/12 00:43:34;;;;;;;63.50;40.17;;;;;;;;;;5071009;28;20455;-63
2020/12/12 00:46:01;;;;;;;62.90;37.90;;;;;;;;;;5070440;28;20467;-63
2020/12/12 00:48:28;;;;;;;62.40;37.70;;;;;;;;;;5070407;28;20494;-62
2020/12/12 00:50:55;;;;;;;64.80;38.30;;;;;;;;;;5071282;28;20463;-63
2020/12/12 00:53:21;;;;;;;59.07;37.93;;;;;;;;;;5070979;28;20466;-62
2020/12/12 00:55:48;;;;;;;62.17;39.93;;;;;;;;;;5067938;28;20494;-62
2020/12/12 00:58:15;;;;;;;63.97;39.30;;;;;;;;;;5067570;28;20459;-63
2020/12/12 01:00:41;;;;;;;60.10;35.73;;;;;;;;;;5067951;28;20459;-62
2020/12/12 01:03:09;;;;;;;62.23;39.67;;;;;;;;;;5070589;28;20478;-62
2020/12/12 01:05:36;;;;;;;58.37;40.00;;;;;;;;;;5070860;28;20447;-62
2020/12/12 01:08:02;;;;;;;63.80;42.10;;;;;;;;;;5070860;28;20466;-63
2020/12/12 01:10:29;;;;;;;56.33;38.47;;;;;;;;;;5070240;28;20486;-63
2020/12/12 01:12:56;;;;;;;55.73;36.93;;;;;;;;;;5062920;28;20945;-62
2020/12/12 01:15:23;;;;;;;63.60;38.10;;;;;;;;;;5068048;28;20498;-63
2020/12/12 01:17:50;;;;;;;58.67;39.50;;;;;;;;;;5070769;28;20478;-64
2020/12/12 01:20:17;;;;;;;58.37;38.00;;;;;;;;;;5069276;28;20494;-68
2020/12/12 01:22:44;;;;;;;59.53;38.63;;;;;;;;;;5070855;28;20472;-64
2020/12/12 01:25:11;;;;;;;58.67;39.93;;;;;;;;;;5073935;28;20530;-64
2020/12/12 01:27:38;;;;;;;58.23;36.70;;;;;;;;;;5074623;28;20450;-63
2020/12/12 01:30:04;;;;;;;56.60;37.93;;;;;;;;;;5074984;28;20503;-63
2020/12/12 01:32:31;;;;;;;56.33;39.20;;;;;;;;;;5074894;28;20457;-64
2020/12/12 01:34:58;;;;;;;64.43;42.03;;;;;;;;;;5074106;28;20533;-64
2020/12/12 01:37:25;;;;;;;54.20;38.37;;;;;;;;;;5073818;28;20455;-62
2020/12/12 01:39:52;;;;;;;54.57;38.20;;;;;;;;;;5074509;28;20470;-63
2020/12/12 01:42:19;;;;;;;55.73;39.83;;;;;;;;;;5072566;28;20486;-63
2020/12/12 01:44:45;;;;;;;55.30;38.13;;;;;;;;;;5072948;28;20462;-63
2020/12/12 01:47:12;;;;;;;55.10;39.33;;;;;;;;;;5074023;28;20444;-62
2020/12/12 01:49:39;;;;;;;58.40;38.10;;;;;;;;;;5073988;28;20478;-62
2020/12/12 01:52:06;;;;;;;58.17;40.70;;;;;;;;;;5074064;28;20470;-64
2020/12/12 01:54:34;;;;;;;57.87;39.60;;;;;;;;;;5072987;28;20466;-65
2020/12/12 01:57:03;;;;;;;56.00;37.53;;;;;;;;;;5073247;28;20486;-63
2020/12/12 01:59:29;;;;;;;54.40;36.43;;;;;;;;;;5073486;28;20487;-65
2020/12/12 02:01:57;;;;;;;51.70;36.53;;;;;;;;;;5073399;28;20462;-65
2020/12/12 02:04:25;;;;;;;54.40;38.30;;;;;;;;;;5072436;28;20463;-64
2020/12/12 02:06:52;;;;;;;57.60;41.27;;;;;;;;;;5074131;28;20458;-64
2020/12/12 02:09:19;;;;;;;55.10;36.60;;;;;;;;;;5071308;28;20490;-65
2020/12/12 02:11:46;;;;;;;53.10;39.63;;;;;;;;;;5074630;28;20453;-64
2020/12/12 02:14:13;;;;;;;62.27;37.40;;;;;;;;;;5071761;28;20462;-62
2020/12/12 02:16:51;;;;;;;55.40;42.40;;;;;;;;;;5073996;28;20479;-64
2020/12/12 02:19:18;;;;;;;57.40;37.40;;;;;;;;;;5072523;28;20483;-64
2020/12/12 02:21:48;;;;;;;53.20;38.17;;;;;;;;;;5072570;28;20954;-65
2020/12/12 02:24:14;;;;;;;53.23;37.60;;;;;;;;;;5073300;28;20443;-65
2020/12/12 02:26:41;;;;;;;53.60;39.00;;;;;;;;;;5073260;28;20463;-65
2020/12/12 02:29:10;;;;;;;48.83;36.90;;;;;;;;;;5072113;28;20493;-64
2020/12/12 02:31:37;;;;;;;55.93;38.40;;;;;;;;;;5073722;28;20457;-65
2020/12/12 02:34:04;;;;;;;52.70;36.83;;;;;;;;;;5071674;28;20473;-64
2020/12/12 02:36:33;;;;;;;52.70;37.03;;;;;;;;;;5072518;28;20489;-64
2020/12/12 02:39:01;;;;;;;56.20;41.47;;;;;;;;;;5072712;28;20562;-64
2020/12/12 02:41:28;;;;;;;59.23;38.40;;;;;;;;;;5072507;28;20469;-65
2020/12/12 02:43:55;;;;;;;57.10;44.33;;;;;;;;;;5072107;28;20443;-65
2020/12/12 02:46:21;;;;;;;53.83;41.47;;;;;;;;;;5073105;28;20447;-65
2020/12/12 02:48:49;;;;;;;57.60;41.27;;;;;;;;;;5071046;28;20504;-65
2020/12/12 02:51:16;;;;;;;49.17;37.80;;;;;;;;;;5072321;28;20550;-65
2020/12/12 02:53:43;;;;;;;54.27;38.00;;;;;;;;;;5072305;28;20508;-64
2020/12/12 02:56:11;;;;;;;49.50;35.93;;;;;;;;;;5072708;28;20489;-65
2020/12/12 02:58:38;;;;;;;54.23;37.70;;;;;;;;;;5071560;28;20890;-65
2020/12/12 03:01:04;;;;;;;51.80;34.93;;;;;;;;;;5070529;28;20473;-64
2020/12/12 03:03:31;;;;;;;53.87;37.93;;;;;;;;;;5070026;28;20578;-65
2020/12/12 03:05:58;;;;;;;58.17;39.33;;;;;;;;;;5072471;28;20451;-65
2020/12/12 03:08:24;;;;;;;48.30;36.47;;;;;;;;;;5068029;28;20471;-64
2020/12/12 03:10:51;;;;;;;50.10;37.73;;;;;;;;;;5072467;28;20463;-64
2020/12/12 03:13:18;;;;;;;51.50;37.80;;;;;;;;;;5071903;28;20471;-65
2020/12/12 03:15:45;;;;;;;60.00;41.43;;;;;;;;;;5071922;28;20478;-65
2020/12/12 03:18:12;;;;;;;58.57;40.93;;;;;;;;;;5071084;28;20467;-65
2020/12/12 03:20:39;;;;;;;57.20;39.40;;;;;;;;;;5072839;28;20470;-64
2020/12/12 03:23:06;;;;;;;52.03;37.97;;;;;;;;;;5073218;28;20947;-63
2020/12/12 03:25:32;;;;;;;52.63;35.83;;;;;;;;;;5072787;28;20839;-64
2020/12/12 03:27:59;;;;;;;52.23;40.00;;;;;;;;;;5073290;28;20454;-63
2020/12/12 03:30:26;;;;;;;60.00;40.23;;;;;;;;;;5071745;28;20490;-63
2020/12/12 03:32:53;;;;;;;56.93;38.57;;;;;;;;;;5071982;28;20459;-64
2020/12/12 03:35:20;;;;;;;57.20;41.70;;;;;;;;;;5072360;28;20439;-64
2020/12/12 03:37:46;;;;;;;55.90;34.97;;;;;;;;;;5071782;28;20467;-64
2020/12/12 03:40:13;;;;;;;55.77;40.83;;;;;;;;;;5072951;28;20477;-63
2020/12/12 03:42:40;;;;;;;64.13;43.10;;;;;;;;;;5071430;28;20857;-63
2020/12/12 03:45:06;;;;;;;55.97;39.40;;;;;;;;;;5068916;28;20467;-64
2020/12/12 03:47:34;;;;;;;51.53;35.47;;;;;;;;;;5070934;28;20550;-64
2020/12/12 03:50:00;;;;;;;59.40;41.23;;;;;;;;;;5071607;28;20474;-64
2020/12/12 03:52:27;;;;;;;55.37;37.73;;;;;;;;;;5071738;28;20462;-64
2020/12/12 03:54:54;;;;;;;65.03;43.13;;;;;;;;;;5070840;28;20472;-64
2020/12/12 03:57:20;;;;;;;58.47;39.87;;;;;;;;;;5072141;28;20486;-64
2020/12/12 03:59:47;;;;;;;55.77;43.20;;;;;;;;;;5070139;28;20490;-65
2020/12/12 04:02:14;;;;;;;55.03;41.03;;;;;;;;;;5070540;28;20467;-64
2020/12/12 04:04:41;;;;;;;60.37;45.10;;;;;;;;;;5071096;28;20465;-64
2020/12/12 04:07:08;;;;;;;65.37;45.67;;;;;;;;;;5071784;28;20938;-64
2020/12/12 04:09:34;;;;;;;66.47;48.83;;;;;;;;;;5070817;28;20483;-65
2020/12/12 04:12:01;;;;;;;60.10;46.00;;;;;;;;;;5058182;28;20523;-65
2020/12/12 04:14:28;;;;;;;61.40;45.33;;;;;;;;;;5068452;28;20467;-63
2020/12/12 04:16:54;;;;;;;57.90;45.10;;;;;;;;;;5069801;28;20497;-66
2020/12/12 04:19:21;;;;;;;59.07;46.73;;;;;;;;;;5071579;28;20471;-64
2020/12/12 04:21:49;;;;;;;61.00;45.63;;;;;;;;;;5070841;28;20678;-64
2020/12/12 04:24:16;;;;;;;60.33;45.87;;;;;;;;;;5071208;28;20454;-64
2020/12/12 04:26:42;;;;;;;61.73;46.37;;;;;;;;;;5071205;28;20462;-63
2020/12/12 04:29:09;;;;;;;59.20;44.60;;;;;;;;;;5071173;28;20474;-64
2020/12/12 04:31:36;;;;;;;61.23;47.73;;;;;;;;;;5069705;28;20470;-64
2020/12/12 04:34:02;;;;;;;62.47;45.83;;;;;;;;;;5051178;28;20458;-63
2020/12/12 04:36:32;;;;;;;60.80;45.83;;;;;;;;;;5065531;28;20494;-63
2020/12/12 04:38:59;;;;;;;61.53;45.83;;;;;;;;;;5070858;28;20490;-63
2020/12/12 04:41:26;;;;;;;65.77;45.87;;;;;;;;;;5071367;28;20443;-64
2020/12/12 04:43:53;;;;;;;66.57;49.20;;;;;;;;;;5068843;28;20478;-64
2020/12/12 04:46:21;;;;;;;64.67;47.00;;;;;;;;;;5069757;28;20940;-63
2020/12/12 04:48:48;;;;;;;62.20;48.47;;;;;;;;;;5070132;28;21017;-63
2020/12/12 04:51:14;;;;;;;61.83;44.90;;;;;;;;;;5069923;28;20977;-63
2020/12/12 04:53:41;;;;;;;63.07;45.80;;;;;;;;;;5070860;28;20818;-63
2020/12/12 04:56:09;;;;;;;63.10;45.03;;;;;;;;;;5070372;28;20483;-63
2020/12/12 04:58:38;;;;;;;61.53;47.67;;;;;;;;;;5074382;28;20996;-63
2020/12/12 05:01:05;;;;;;;62.77;47.30;;;;;;;;;;5069405;28;20467;-63
2020/12/12 05:03:33;;;;;;;60.17;45.10;;;;;;;;;;5074070;28;20851;-64
2020/12/12 05:06:00;;;;;;;60.20;46.00;;;;;;;;;;5075765;28;21012;-64
2020/12/12 05:08:26;;;;;;;65.20;49.50;;;;;;;;;;5073566;28;20859;-64
2020/12/12 05:10:53;;;;;;;63.87;48.07;;;;;;;;;;5076485;28;21092;-64
2020/12/12 05:13:21;;;;;;;64.20;47.03;;;;;;;;;;5074637;28;20855;-63
2020/12/12 05:15:49;;;;;;;59.97;46.63;;;;;;;;;;5056920;28;20488;-64
2020/12/12 05:18:15;;;;;;;62.63;47.80;;;;;;;;;;5055854;28;20447;-64
2020/12/12 05:20:42;;;;;;;62.97;46.20;;;;;;;;;;5072704;28;20463;-63
2020/12/12 05:23:12;;;;;;;67.67;49.70;;;;;;;;;;5074752;28;20447;-64
2020/12/12 05:25:39;;;;;;;65.10;46.20;;;;;;;;;;5073784;28;20468;-63
2020/12/12 05:28:07;;;;;;;60.90;45.77;;;;;;;;;;5073685;28;20467;-64
2020/12/12 05:30:35;;;;;;;65.53;45.57;;;;;;;;;;5074513;28;20958;-64
2020/12/12 05:33:02;;;;;;;63.80;49.37;;;;;;;;;;5073754;28;20462;-64
2020/12/12 05:35:28;;;;;;;63.10;44.40;;;;;;;;;;5072190;28;20473;-64
2020/12/12 05:37:55;;;;;;;57.33;43.80;;;;;;;;;;5074600;28;20439;-63
2020/12/12 05:40:22;;;;;;;72.10;48.57;;;;;;;;;;5073678;28;20494;-63
2020/12/12 05:42:48;;;;;;;61.83;46.87;;;;;;;;;;5073628;28;20466;-63
2020/12/12 05:45:15;;;;;;;67.43;47.77;;;;;;;;;;5073470;28;20450;-63
2020/12/12 05:47:43;;;;;;;68.30;49.77;;;;;;;;;;5073697;28;20463;-63
2020/12/12 05:50:10;;;;;;;62.67;47.70;;;;;;;;;;5072856;28;20509;-63
2020/12/12 05:52:38;;;;;;;66.97;48.03;;;;;;;;;;5074257;28;20855;-63
2020/12/12 05:55:06;;;;;;;66.57;51.87;;;;;;;;;;5073236;28;20479;-63
2020/12/12 05:57:33;;;;;;;72.77;47.83;;;;;;;;;;5074186;28;20478;-62
2020/12/12 06:00:00;;;;;;;64.20;48.10;;;;;;;;;;5073480;28;20482;-63
2020/12/12 06:02:28;;;;;;;68.10;47.93;;;;;;;;;;5073684;28;20473;-63
2020/12/12 06:04:57;;;;;;;72.80;50.23;;;;;;;;;;5072765;28;20493;-62
2020/12/12 06:07:28;;;;;;;67.60;48.80;;;;;;;;;;5071464;28;20453;-63
2020/12/12 06:09:59;;;;;;;68.23;49.47;;;;;;;;;;5073643;28;20470;-62
2020/12/12 06:12:26;;;;;;;67.13;46.80;;;;;;;;;;5073121;28;20463;-63
2020/12/12 06:14:55;;;;;;;69.33;50.53;;;;;;;;;;5072671;28;20471;-63
2020/12/12 06:17:30;;;;;;;73.07;48.33;;;;;;;;;;5072776;28;21015;-62
2020/12/12 06:19:59;;;;;;;69.67;48.17;;;;;;;;;;5073028;28;20587;-63
2020/12/12 06:22:27;;;;;;;73.60;50.40;;;;;;;;;;5073432;28;20447;-62
2020/12/12 06:24:59;;;;;;;66.20;46.87;;;;;;;;;;5072048;28;20962;-63
2020/12/12 06:27:27;;;;;;;65.33;48.73;;;;;;;;;;5073494;28;20443;-63
2020/12/12 06:29:54;;;;;;;66.87;46.53;;;;;;;;;;5072626;28;20489;-63
2020/12/12 06:32:21;;;;;;;65.60;47.30;;;;;;;;;;5073673;28;20455;-62
2020/12/12 06:34:49;;;;;;;65.43;48.10;;;;;;;;;;5071160;28;20485;-63
2020/12/12 06:37:26;;;;;;;65.60;47.03;;;;;;;;;;5073253;28;20497;-63
2020/12/12 06:39:53;;;;;;;63.47;47.20;;;;;;;;;;5071464;28;20508;-63
2020/12/12 06:42:32;;;;;;;69.37;48.73;;;;;;;;;;5073036;28;20819;-62
2020/12/12 06:45:00;;;;;;;68.03;48.53;;;;;;;;;;5072018;28;20463;-63
2020/12/12 06:47:37;;;;;;;67.90;48.67;;;;;;;;;;5073503;28;20439;-63
2020/12/12 06:50:08;;;;;;;66.37;49.47;;;;;;;;;;5070762;28;20489;-63
2020/12/12 06:52:35;;;;;;;70.20;49.03;;;;;;;;;;5073933;28;20829;-63
2020/12/12 06:55:05;;;;;;;68.60;48.57;;;;;;;;;;5072084;28;20475;-63
2020/12/12 06:57:35;;;;;;;73.33;49.10;;;;;;;;;;5073320;28;20482;-63
2020/12/12 07:00:02;;;;;;;67.50;48.17;;;;;;;;;;5072449;28;20490;-63
2020/12/12 07:02:28;;;;;;;71.67;47.10;;;;;;;;;;5071369;28;20477;-63
2020/12/12 07:04:55;;;;;;;71.40;50.33;;;;;;;;;;5070131;28;20470;-64
2020/12/12 07:07:21;;;;;;;39.47;16.90;;;;;;;;;;5070221;28;20462;-64
2020/12/12 07:09:49;;;;;;;24.03;17.10;;;;;;;;;;5069481;28;20482;-64
2020/12/12 07:12:16;;;;;;;24.90;18.17;;;;;;;;;;5072313;28;20455;-64
2020/12/12 07:14:42;;;;;;;29.70;20.30;;;;;;;;;;5070081;28;20455;-64
2020/12/12 07:17:09;;;;;;;24.20;19.50;;;;;;;;;;5064106;28;20486;-65
2020/12/12 07:19:36;;;;;;;21.70;17.47;;;;;;;;;;5073115;28;20470;-64
2020/12/12 07:22:04;;;;;;;19.13;16.03;;;;;;;;;;5072426;28;20446;-65
2020/12/12 07:24:31;;;;;;;23.80;18.30;;;;;;;;;;5071147;28;20463;-64
2020/12/12 07:26:59;;;;;;;21.47;17.97;;;;;;;;;;5052993;28;20439;-65
2020/12/12 07:29:26;;;;;;;25.30;20.60;;;;;;;;;;5054658;28;20471;-65
2020/12/12 07:31:52;;;;;;;23.57;18.30;;;;;;;;;;5072551;28;20455;-64
2020/12/12 07:34:19;;;;;;;22.67;19.10;;;;;;;;;;5072166;28;20469;-64
2020/12/12 07:36:46;;;;;;;22.90;19.40;;;;;;;;;;5073159;28;20489;-65
2020/12/12 07:39:13;;;;;;;23.37;19.83;;;;;;;;;;5072599;28;20482;-65
2020/12/12 07:41:43;;;;;;;23.80;20.90;;;;;;;;;;5073270;28;20453;-64
2020/12/12 07:44:11;;;;;;;23.00;18.67;;;;;;;;;;5071619;28;21031;-65
2020/12/12 07:46:39;;;;;;;22.00;19.20;;;;;;;;;;5072614;28;20447;-65
2020/12/12 07:49:06;;;;;;;24.63;19.87;;;;;;;;;;5056427;28;20487;-65
2020/12/12 07:51:33;;;;;;;24.67;18.70;;;;;;;;;;5072267;28;20461;-65
2020/12/12 07:54:00;;;;;;;24.27;21.67;;;;;;;;;;5072368;28;20954;-64
2020/12/12 07:56:29;;;;;;;24.87;21.03;;;;;;;;;;5072034;28;21020;-64
2020/12/12 07:58:59;;;;;;;22.87;19.70;;;;;;;;;;5072610;28;20481;-64
2020/12/12 08:01:26;;;;;;;23.50;20.43;;;;;;;;;;5072216;28;20596;-65
2020/12/12 08:03:53;;;;;;;24.80;21.17;;;;;;;;;;5072506;28;20457;-64
2020/12/12 08:06:19;;;;;;;23.27;20.73;;;;;;;;;;5072888;28;20439;-64
2020/12/12 08:08:53;;;;;;;22.90;20.10;;;;;;;;;;5072215;28;20481;-64
2020/12/12 08:11:20;;;;;;;23.07;19.40;;;;;;;;;;5072704;28;20443;-65
2020/12/12 08:13:47;;;;;;;25.87;19.93;;;;;;;;;;5071627;28;20451;-65
2020/12/12 08:16:16;;;;;;;23.80;20.33;;;;;;;;;;5069375;28;20493;-64
2020/12/12 08:18:44;;;;;;;26.87;21.80;;;;;;;;;;5072163;28;20481;-65
2020/12/12 08:21:11;;;;;;;23.17;20.03;;;;;;;;;;5072719;28;20453;-65
2020/12/12 08:23:38;;;;;;;25.77;20.90;;;;;;;;;;5071753;28;20473;-65
2020/12/12 08:26:06;;;;;;;36.93;33.03;;;;;;;;;;5071680;28;20452;-64
2020/12/12 08:28:33;;;;;;;54.17;43.90;;;;;;;;;;5054204;28;20473;-64
2020/12/12 08:31:13;;;;;;;55.90;45.70;;;;;;;;;;5065657;28;20483;-63
2020/12/12 08:33:39;;;;;;;62.97;47.83;;;;;;;;;;5071868;28;20461;-64
2020/12/12 08:36:14;;;;;;;59.90;43.73;;;;;;;;;;5077521;28;20479;-64
2020/12/12 08:38:41;;;;;;;61.83;46.30;;;;;;;;;;5077551;28;20499;-63
2020/12/12 08:41:12;;;;;;;67.83;47.27;;;;;;;;;;5072809;28;20462;-63
2020/12/12 08:43:41;;;;;;;67.67;46.30;;;;;;;;;;5072014;28;20450;-63
2020/12/12 08:46:07;;;;;;;62.03;45.90;;;;;;;;;;5075437;28;20458;-63
2020/12/12 08:48:35;;;;;;;68.70;46.67;;;;;;;;;;5077315;28;20481;-63
2020/12/12 08:51:02;;;;;;;65.20;49.30;;;;;;;;;;5074881;28;20454;-63
2020/12/12 08:53:31;;;;;;;60.53;45.83;;;;;;;;;;5077724;28;20439;-65
2020/12/12 08:56:05;;;;;;;65.10;47.03;;;;;;;;;;5076541;28;20457;-61
2020/12/12 08:58:32;;;;;;;31.93;22.13;;;;;;;;;;5076118;28;21005;-63
2020/12/12 09:01:09;;;;;;;60.07;44.50;;;;;;;;;;5076915;28;20455;-61
2020/12/12 09:03:35;;;;;;;65.23;47.13;;;;;;;;;;5077610;28;20442;-62
2020/12/12 09:06:06;;;;;;;64.20;45.97;;;;;;;;;;5075902;28;20463;-62
2020/12/12 09:08:34;;;;;;;68.27;48.33;;;;;;;;;;5075749;28;20484;-61
2020/12/12 09:11:10;;;;;;;65.50;46.83;;;;;;;;;;5077187;28;20462;-61
2020/12/12 09:13:36;;;;;;;66.80;48.50;;;;;;;;;;5076782;28;20454;-61
2020/12/12 09:16:03;;;;;;;62.10;48.13;;;;;;;;;;5070423;28;20458;-61
2020/12/12 09:18:30;;;;;;;64.80;48.73;;;;;;;;;;5074803;28;20472;-61
2020/12/12 09:20:57;;;;;;;71.73;48.03;;;;;;;;;;5077188;28;20447;-61
2020/12/12 09:23:23;;;;;;;69.00;48.83;;;;;;;;;;5065008;28;20454;-61
2020/12/12 09:25:51;;;;;;;67.13;50.83;;;;;;;;;;5077406;28;20443;-61
2020/12/12 09:28:17;;;;;;;67.70;49.77;;;;;;;;;;5077121;28;20449;-60
2020/12/12 09:30:44;;;;;;;67.00;47.50;;;;;;;;;;5077085;28;20458;-61
2020/12/12 09:33:11;;;;;;;61.10;47.63;;;;;;;;;;5077154;28;20806;-61
2020/12/12 09:35:37;;;;;;;62.97;49.83;;;;;;;;;;5058505;28;20947;-61
2020/12/12 09:38:04;;;;;;;60.83;48.67;;;;;;;;;;5077249;28;20488;-62
2020/12/12 09:40:30;;;;;;;36.70;22.67;;;;;;;;;;5076554;28;20458;-62
2020/12/12 09:42:58;;;;;;;56.70;44.80;;;;;;;;;;5076879;28;20447;-61
2020/12/12 09:45:25;;;;;;;63.93;49.03;;;;;;;;;;5072891;28;20541;-61
2020/12/12 09:47:51;;;;;;;65.10;46.57;;;;;;;;;;5074212;28;20445;-61
2020/12/12 09:50:18;;;;;;;62.87;46.17;;;;;;;;;;5073822;28;20486;-61
2020/12/12 09:52:45;;;;;;;55.00;34.87;;;;;;;;;;5074235;28;20516;-62
2020/12/12 09:55:11;;;;;;;47.83;36.13;;;;;;;;;;5073534;28;20451;-61
2020/12/12 09:57:38;;;;;;;60.60;45.03;;;;;;;;;;5074339;28;20479;-61
2020/12/12 10:00:06;;;;;;;62.50;46.57;;;;;;;;;;5073011;28;20479;-61
2020/12/12 10:02:32;;;;;;;59.47;47.47;;;;;;;;;;5074324;28;20446;-61
2020/12/12 10:04:59;;;;;;;55.83;39.77;;;;;;;;;;5073524;28;20446;-61
2020/12/12 10:07:25;;;;;;;58.73;45.77;;;;;;;;;;5074154;28;20488;-61
2020/12/12 10:09:52;;;;;;;62.70;46.20;;;;;;;;;;5073722;28;20881;-61
2020/12/12 10:12:19;;;;;;;59.43;46.53;;;;;;;;;;5073073;28;20828;-61
2020/12/12 10:14:45;;;;;;;56.47;45.33;;;;;;;;;;5071347;28;20443;-61
2020/12/12 10:17:13;;;;;;;62.00;46.40;;;;;;;;;;5063749;28;20486;-61
2020/12/12 10:19:40;;;;;;;59.93;45.67;;;;;;;;;;5062069;28;20471;-61
2020/12/12 10:22:06;;;;;;;60.83;48.77;;;;;;;;;;5073667;28;20489;-61
2020/12/12 10:24:33;;;;;;;62.37;47.57;;;;;;;;;;5072977;28;20447;-62
2020/12/12 10:27:00;;;;;;;60.37;46.77;;;;;;;;;;5073343;28;20454;-62
2020/12/12 10:29:26;;;;;;;62.60;47.10;;;;;;;;;;5056538;28;20486;-62
2020/12/12 10:31:53;;;;;;;57.90;45.90;;;;;;;;;;5068546;28;20453;-62
2020/12/12 10:34:20;;;;;;;57.87;45.77;;;;;;;;;;5072950;28;20458;-61
2020/12/12 10:36:47;;;;;;;59.10;44.07;;;;;;;;;;5062025;28;20480;-61
2020/12/12 10:39:15;;;;;;;57.13;45.33;;;;;;;;;;5055830;28;20464;-62
2020/12/12 10:41:42;;;;;;;50.57;38.30;;;;;;;;;;5072587;28;20554;-62
2020/12/12 10:44:09;;;;;;;57.83;46.10;;;;;;;;;;5072630;28;20463;-62
2020/12/12 10:46:35;;;;;;;57.63;46.17;;;;;;;;;;5060089;28;20443;-62
2020/12/12 10:49:02;;;;;;;55.07;43.40;;;;;;;;;;5059742;28;20484;-62
2020/12/12 10:51:29;;;;;;;54.27;45.50;;;;;;;;;;5054261;28;20472;-62
2020/12/12 10:53:56;;;;;;;53.60;42.53;;;;;;;;;;5052746;28;20444;-62
2020/12/12 10:56:23;;;;;;;57.50;46.37;;;;;;;;;;5070812;28;20459;-62
2020/12/12 10:58:49;;;;;;;58.93;46.30;;;;;;;;;;5072209;28;20467;-63
2020/12/12 11:01:16;;;;;;;55.57;44.83;;;;;;;;;;5072260;28;20454;-62
2020/12/12 11:03:43;;;;;;;54.63;42.90;;;;;;;;;;5072472;28;20443;-62
2020/12/12 11:06:11;;;;;;;57.10;45.67;;;;;;;;;;5072775;28;20486;-62
2020/12/12 11:08:39;;;;;;;53.40;44.10;;;;;;;;;;5072146;28;20501;-64
2020/12/12 11:11:06;;;;;;;57.50;45.80;;;;;;;;;;5074280;28;20449;-63
2020/12/12 11:13:32;;;;;;;54.77;43.40;;;;;;;;;;5075443;28;20442;-63
2020/12/12 11:15:59;;;;;;;54.10;44.67;;;;;;;;;;5074798;28;20463;-63
2020/12/12 11:18:26;;;;;;;51.87;43.87;;;;;;;;;;5075056;28;20479;-63
2020/12/12 11:20:52;;;;;;;53.90;43.20;;;;;;;;;;5073953;28;20453;-63
2020/12/12 11:23:19;;;;;;;53.20;43.00;;;;;;;;;;5073380;28;20454;-62
2020/12/12 11:25:47;;;;;;;50.97;42.33;;;;;;;;;;5071862;28;20455;-65
2020/12/12 11:28:14;;;;;;;56.80;44.47;;;;;;;;;;5072771;28;20449;-67
2020/12/12 11:30:40;;;;;;;48.73;42.93;;;;;;;;;;5071011;28;20450;-63
2020/12/12 11:33:07;;;;;;;53.53;42.37;;;;;;;;;;5066149;28;20513;-64
2020/12/12 11:35:39;;;;;;;52.93;42.50;;;;;;;;;;5064250;28;20447;-64
2020/12/12 11:41:02;;;;;;;51.87;41.77;;;;;;;;;;5069955;28;20447;-62
2020/12/12 11:46:27;;;;;;;52.40;44.60;;;;;;;;;;5063340;28;20458;-63
2020/12/12 11:48:54;;;;;;;52.43;41.00;;;;;;;;;;5071415;28;20489;-63
2020/12/12 11:51:21;;;;;;;45.87;40.83;;;;;;;;;;5072067;28;20886;-63
2020/12/12 11:53:48;;;;;;;52.10;41.53;;;;;;;;;;5071905;28;20501;-64
2020/12/12 11:56:20;;;;;;;53.40;43.03;;;;;;;;;;5078633;28;20900;-63
2020/12/12 11:58:46;;;;;;;53.33;41.97;;;;;;;;;;5074226;28;20538;-64
2020/12/12 12:01:18;;;;;;;47.90;40.93;;;;;;;;;;5077579;28;20443;-63
2020/12/12 12:03:45;;;;;;;49.87;44.40;;;;;;;;;;5080197;28;20453;-64
2020/12/12 12:06:12;;;;;;;52.90;42.27;;;;;;;;;;5075126;28;20443;-64
2020/12/12 12:08:45;;;;;;;54.30;43.60;;;;;;;;;;5061131;28;20463;-64
2020/12/12 12:11:19;;;;;;;52.20;42.70;;;;;;;;;;5071792;28;20467;-63
2020/12/12 12:13:47;;;;;;;50.13;42.70;;;;;;;;;;5068046;28;20459;-63
2020/12/12 12:16:19;;;;;;;49.70;41.57;;;;;;;;;;5072588;28;20451;-63
2020/12/12 12:18:46;;;;;;;48.20;41.43;;;;;;;;;;5071573;28;20478;-63
2020/12/12 12:21:12;;;;;;;49.33;41.90;;;;;;;;;;5071579;28;20968;-63
2020/12/12 12:23:39;;;;;;;51.97;42.37;;;;;;;;;;5070147;28;20439;-63
2020/12/12 12:26:06;;;;;;;54.80;44.43;;;;;;;;;;5055671;28;20456;-63
2020/12/12 12:28:32;;;;;;;50.10;42.00;;;;;;;;;;5060622;28;20491;-63
2020/12/12 12:31:00;;;;;;;49.57;41.00;;;;;;;;;;5070599;28;20451;-63
2020/12/12 12:33:27;;;;;;;50.13;41.77;;;;;;;;;;5070868;28;20453;-63
2020/12/12 12:35:53;;;;;;;47.30;40.10;;;;;;;;;;5070712;28;20451;-63
2020/12/12 12:38:20;;;;;;;47.20;40.93;;;;;;;;;;5069607;28;20863;-63
2020/12/12 12:40:47;;;;;;;48.73;40.70;;;;;;;;;;5065902;28;20466;-63
2020/12/12 12:43:14;;;;;;;51.27;41.10;;;;;;;;;;5067536;28;20453;-63
2020/12/12 12:45:40;;;;;;;52.20;42.50;;;;;;;;;;5054889;28;20454;-63
2020/12/12 12:48:08;;;;;;;48.73;42.40;;;;;;;;;;5062569;28;20500;-63
2020/12/12 12:50:35;;;;;;;52.17;42.13;;;;;;;;;;5070950;28;20439;-63
2020/12/12 12:53:02;;;;;;;56.67;42.13;;;;;;;;;;5070835;28;20466;-63
2020/12/12 12:55:28;;;;;;;51.20;43.63;;;;;;;;;;5060150;28;20446;-63
2020/12/12 12:57:57;;;;;;;49.97;43.53;;;;;;;;;;5059029;28;20506;-63
2020/12/12 13:00:24;;;;;;;51.10;42.83;;;;;;;;;;5071543;28;20475;-63
2020/12/12 13:02:51;;;;;;;53.33;43.33;;;;;;;;;;5070470;28;20455;-63
2020/12/12 13:05:18;;;;;;;53.17;42.10;;;;;;;;;;5070932;28;20454;-63
2020/12/12 13:07:45;;;;;;;57.60;44.57;;;;;;;;;;5070322;28;20450;-63
2020/12/12 13:10:12;;;;;;;51.57;42.53;;;;;;;;;;5071260;28;20467;-63
2020/12/12 13:12:39;;;;;;;55.67;45.50;;;;;;;;;;5069307;28;20452;-63
2020/12/12 13:15:05;;;;;;;50.60;43.03;;;;;;;;;;5057441;28;20458;-63
2020/12/12 13:17:32;;;;;;;52.50;44.13;;;;;;;;;;5068509;28;20568;-63
2020/12/12 13:20:08;;;;;;;50.90;42.80;;;;;;;;;;5074722;28;20503;-63
2020/12/12 13:22:36;;;;;;;59.07;45.47;;;;;;;;;;5074390;28;20446;-63
2020/12/12 13:25:03;;;;;;;56.70;45.17;;;;;;;;;;5074587;28;20447;-63
2020/12/12 13:27:31;;;;;;;53.90;44.77;;;;;;;;;;5070086;28;20447;-64
2020/12/12 13:30:16;;;;;;;54.93;44.90;;;;;;;;;;5074193;28;20475;-63
2020/12/12 13:32:43;;;;;;;55.63;45.53;;;;;;;;;;5074009;28;20454;-63
2020/12/12 13:35:10;;;;;;;55.23;43.90;;;;;;;;;;5073925;28;20976;-64
2020/12/12 13:37:37;;;;;;;52.23;44.80;;;;;;;;;;5073283;28;20489;-63
2020/12/12 13:40:05;;;;;;;54.80;45.17;;;;;;;;;;5074226;28;20985;-62
2020/12/12 13:42:34;;;;;;;52.67;42.73;;;;;;;;;;5072351;28;20545;-62
2020/12/12 13:45:00;;;;;;;52.07;41.87;;;;;;;;;;5070938;28;20447;-62
2020/12/12 13:47:27;;;;;;;51.63;39.40;;;;;;;;;;5073466;28;20447;-62
2020/12/12 13:49:54;;;;;;;50.70;40.10;;;;;;;;;;5068080;28;20499;-62
2020/12/12 13:52:20;;;;;;;56.50;41.77;;;;;;;;;;5060020;28;20452;-63
2020/12/12 13:54:48;;;;;;;47.70;40.03;;;;;;;;;;5074854;28;20443;-62
2020/12/12 13:57:14;;;;;;;51.70;39.40;;;;;;;;;;5073539;28;20483;-62
2020/12/12 13:59:42;;;;;;;52.53;40.80;;;;;;;;;;5074519;28;20469;-62
2020/12/12 14:02:09;;;;;;;52.43;40.43;;;;;;;;;;5073752;28;20540;-62
2020/12/12 14:04:35;;;;;;;49.23;38.13;;;;;;;;;;5074232;28;20451;-62
2020/12/12 14:07:04;;;;;;;51.77;38.27;;;;;;;;;;5073107;28;20451;-62
2020/12/12 14:23:14;;;;;;;55.47;43.53;;;;;;;;;;5073235;28;20446;-60
2020/12/12 14:28:24;;;;;;;51.53;42.07;;;;;;;;;;5073321;28;20433;-60
2020/12/12 14:30:51;;;;;;;48.93;40.93;;;;;;;;;;5072402;28;20487;-60
2020/12/12 14:33:18;;;;;;;52.67;41.27;;;;;;;;;;5072502;28;20455;-60
2020/12/12 14:35:44;;;;;;;52.70;43.40;;;;;;;;;;5072344;28;20451;-61
2020/12/12 14:38:11;;;;;;;49.60;42.23;;;;;;;;;;5073032;28;20493;-61
2020/12/12 14:40:38;;;;;;;50.50;45.20;;;;;;;;;;5073547;28;20462;-61